Impacts TAF Board INFO
FOR SITUATIONAL AWARENESS. NOT TO BE USED FOR FLIGHT PLANNING PURPOSES.
IDs:

KTCL - Tuscaloosa Rgnl, AL, US

Issued at 1120 UTC 23 Jan 2018
Updated at 1132 UTC 23 Jan 2018
Potential Impact None Slight Moderate High
Time1053Z 23/12Z 23/13Z 23/14Z 23/15Z 23/16Z 23/17Z 23/18Z 23/19Z 23/20Z 23/21Z 23/22Z 23/23Z 24/00Z>>
Type OBS PRVL PRVL PRVL PRVL PRVL PRVL PRVL PRVL PRVL PRVL PRVL PRVL PRVL
VIS 10 >6 >6 >6 >6 >6 >6 >6 >6 >6 >6 >6 >6 >6
CIG -- -- -- -- -- -- -- -- -- -- -- -- -- --
Cover CLR SKC SKC SKC SKC SKC SKC SKC SKC SKC SKC SKC SKC SKC
FltCat VFR VFR VFR VFR VFR VFR VFR VFR VFR VFR VFR VFR VFR VFR
WX -- -- -- -- -- -- -- -- -- -- -- -- -- --
WDir 260 280 280 280 290 290 290 290 290 290 290 290 310 310
WSpd 7 8 8 8 10 10 10 10 10 10 10 10 6 6
WGst -- -- -- -- 18 18 18 18 18 18 18 18 -- --

Raw TAF
KTCL 231120Z 2312/2412 28008KT P6SM SKC
  FM231500 29010G18KT P6SM SKC
  FM232300 31006KT P6SM SKC


Raw METAR
KTCL 231053Z AUTO 26007KT 10SM CLR 07/M01 A3001 RMK AO2 SLP163 T00721006
KTCL 230953Z AUTO 27008KT 10SM CLR 08/M01 A3000 RMK AO2 SLP158 T00831011
KTCL 230853Z AUTO 27006KT 10SM CLR 09/M01 A2999 RMK AO2 SLP156 T00891011 51011

METAR Board
Radar Display
Forecast Discussion

FOR SITUATIONAL AWARENESS. NOT TO BE USED FOR FLIGHT PLANNING PURPOSES.